createdAt,value
2017-10-19T00:07:22.531Z,7.00
2017-10-19T00:16:59.684Z,6.91
2017-10-19T00:26:36.798Z,6.71
2017-10-19T00:36:14.200Z,6.91
2017-10-19T00:45:51.078Z,6.71
2017-10-19T00:55:28.098Z,6.91
2017-10-19T01:05:05.252Z,6.81
2017-10-19T01:14:43.399Z,6.71
2017-10-19T01:24:20.132Z,6.52
2017-10-19T01:33:57.323Z,6.42
2017-10-19T01:43:34.633Z,6.32
2017-10-19T01:53:11.956Z,6.32
2017-10-19T02:02:48.971Z,6.42
2017-10-19T02:12:26.209Z,6.52
2017-10-19T02:22:03.475Z,6.61
2017-10-19T02:31:40.442Z,6.52
2017-10-19T02:41:17.611Z,6.52
2017-10-19T02:50:54.474Z,6.42
2017-10-19T03:00:32.398Z,6.52
2017-10-19T03:10:10.645Z,6.52
2017-10-19T03:19:47.891Z,6.42
2017-10-19T03:29:25.089Z,6.32
2017-10-19T03:39:02.054Z,6.32
2017-10-19T03:48:39.998Z,6.32
2017-10-19T03:58:17.307Z,6.32
2017-10-19T04:07:54.013Z,6.32
2017-10-19T04:17:32.152Z,6.32
2017-10-19T04:27:09.242Z,6.12
2017-10-19T04:36:46.741Z,6.12
2017-10-19T04:46:23.563Z,5.93
2017-10-19T04:56:01.169Z,6.12
2017-10-19T05:05:38.262Z,5.83
2017-10-19T05:15:20.316Z,5.93
2017-10-19T05:24:51.454Z,5.83
2017-10-19T05:34:28.663Z,5.93
2017-10-19T05:44:09.990Z,5.83
2017-10-19T05:53:41.168Z,5.83
2017-10-19T06:03:18.370Z,6.03
2017-10-19T06:12:56.389Z,6.22
2017-10-19T06:22:34.460Z,6.61
2017-10-19T06:32:12.058Z,7.00
2017-10-19T06:41:54.787Z,7.40
2017-10-19T06:51:26.640Z,7.79
2017-10-19T07:01:04.983Z,8.37
2017-10-19T07:10:43.300Z,8.96
2017-10-19T07:20:21.678Z,9.55
2017-10-19T07:29:59.711Z,9.94
2017-10-19T07:39:37.764Z,10.53
2017-10-19T07:49:15.670Z,10.92
2017-10-19T07:58:54.083Z,11.41
2017-10-19T08:08:32.818Z,11.99
2017-10-19T08:18:10.621Z,12.48
2017-10-19T08:27:49.924Z,12.97
2017-10-19T08:37:28.541Z,13.56
2017-10-19T08:47:06.641Z,13.85
2017-10-19T08:56:45.477Z,14.54
2017-10-19T09:06:23.659Z,14.83
2017-10-19T09:16:01.981Z,15.12
2017-10-19T09:25:40.280Z,15.61
2017-10-19T09:35:18.891Z,16.10
2017-10-19T09:44:58.421Z,16.59
2017-10-19T09:54:36.632Z,17.18
2017-10-19T10:04:15.218Z,17.47
2017-10-19T10:13:53.221Z,17.57
2017-10-19T10:23:31.977Z,18.35
2017-10-19T10:33:14.258Z,17.86
2017-10-19T10:42:46.932Z,18.84
2017-10-19T10:52:25.955Z,21.68
2017-10-19T11:02:04.889Z,22.46
2017-10-19T11:11:43.113Z,23.53
2017-10-19T11:21:20.876Z,24.12
2017-10-19T11:31:00.453Z,22.95
2017-10-19T11:40:38.505Z,23.05
2017-10-19T11:50:16.226Z,21.67
2017-10-19T11:59:54.443Z,22.16
2017-10-19T12:09:31.801Z,22.75
2017-10-19T12:19:08.957Z,24.02
2017-10-19T12:28:53.326Z,22.17
2017-10-19T12:38:32.569Z,22.36
2017-10-19T12:48:11.053Z,22.56
2017-10-19T12:57:50.158Z,23.63
2017-10-19T13:07:31.124Z,25.10
2017-10-19T13:17:09.142Z,24.61
2017-10-19T13:26:48.356Z,26.66
2017-10-19T13:36:28.012Z,26.66
2017-10-19T13:46:07.538Z,26.76
2017-10-19T13:55:46.077Z,26.56
2017-10-19T14:05:17.169Z,22.65
2017-10-19T14:14:51.685Z,20.60
2017-10-19T14:24:28.283Z,19.82
2017-10-19T14:34:04.937Z,19.82
2017-10-19T14:43:43.199Z,19.52
2017-10-19T14:53:20.820Z,19.33
2017-10-19T15:02:58.561Z,19.03
2017-10-19T15:12:40.200Z,18.74
2017-10-19T15:22:11.266Z,17.76
2017-10-19T15:31:50.956Z,16.49
2017-10-19T15:41:20.701Z,15.61
2017-10-19T15:50:57.675Z,14.83
2017-10-19T16:00:34.307Z,14.14
2017-10-19T16:10:10.736Z,13.56
2017-10-19T16:19:47.598Z,13.56
2017-10-19T16:29:24.610Z,13.17
2017-10-19T16:39:02.158Z,12.97
2017-10-19T16:48:43.086Z,12.48
2017-10-19T16:58:13.978Z,11.89
2017-10-19T17:07:50.839Z,11.60
2017-10-19T17:17:27.617Z,11.21
2017-10-19T17:27:04.816Z,11.02
2017-10-19T17:36:41.850Z,10.72
2017-10-19T17:46:22.949Z,10.53
2017-10-19T17:55:58.384Z,10.53
2017-10-19T18:05:29.959Z,10.13
2017-10-19T18:15:10.829Z,10.13
2017-10-19T18:24:42.200Z,10.04
2017-10-19T18:34:23.086Z,9.94
2017-10-19T18:43:54.422Z,9.84
2017-10-19T18:53:36.488Z,9.65
2017-10-19T19:03:07.508Z,9.55
2017-10-19T19:12:44.817Z,9.45
2017-10-19T19:22:21.839Z,9.35
2017-10-19T19:31:59.253Z,9.35
2017-10-19T19:41:36.303Z,9.16
2017-10-19T19:51:13.623Z,8.96
2017-10-19T20:00:50.956Z,8.96
2017-10-19T20:10:28.485Z,8.86
2017-10-19T20:20:09.871Z,8.77
2017-10-19T20:29:45.198Z,8.57
2017-10-19T20:39:20.510Z,8.28
2017-10-19T20:48:55.679Z,8.08
2017-10-19T20:58:31.267Z,8.08
2017-10-19T21:08:06.934Z,8.18
2017-10-19T21:17:41.897Z,7.88
2017-10-19T21:27:17.202Z,7.88
2017-10-19T21:36:52.609Z,7.89
2017-10-19T21:46:27.454Z,7.69
2017-10-19T21:56:02.865Z,7.69
2017-10-19T22:05:38.639Z,7.40
2017-10-19T22:15:13.915Z,7.49
2017-10-19T22:24:49.627Z,7.30
2017-10-19T22:34:24.928Z,7.10
2017-10-19T22:44:00.659Z,7.10
2017-10-19T22:53:36.312Z,7.00
2017-10-19T23:03:11.677Z,7.00
2017-10-19T23:12:47.955Z,6.91
2017-10-19T23:22:23.590Z,6.91
2017-10-19T23:31:58.957Z,6.91
2017-10-19T23:41:34.516Z,6.71
2017-10-19T23:51:09.419Z,6.61
